createdAt,value
2023-03-26T00:01:15.551Z,100461.09
2023-03-26T00:03:44.954Z,100460.34
2023-03-26T00:06:14.027Z,100457.19
2023-03-26T00:08:42.584Z,100462.19
2023-03-26T00:11:10.823Z,100462.88
2023-03-26T00:13:38.789Z,100469.88
2023-03-26T00:16:05.750Z,100461.19
2023-03-26T00:18:34.906Z,100472.75
2023-03-26T00:21:04.830Z,100462.03
2023-03-26T00:23:33.890Z,100463.88
2023-03-26T00:26:00.821Z,100455.16
2023-03-26T00:28:27.394Z,100453.31
2023-03-26T00:31:02.086Z,100452.88
2023-03-26T00:33:29.882Z,100447.25
2023-03-26T00:36:02.431Z,100452.66
2023-03-26T00:38:30.962Z,100449.78
2023-03-26T00:41:06.136Z,100453.19
2023-03-26T00:43:35.403Z,100450.00
2023-03-26T00:46:02.321Z,100437.03
2023-03-26T00:48:44.564Z,100434.19
2023-03-26T00:51:15.499Z,100433.34
2023-03-26T00:53:44.034Z,100439.19
2023-03-26T00:56:11.164Z,100435.97
2023-03-26T00:58:38.641Z,100428.75
2023-03-26T01:01:13.833Z,100427.94
2023-03-26T01:03:45.883Z,100428.59
2023-03-26T01:06:32.711Z,100426.97
2023-03-26T01:09:05.572Z,100426.66
2023-03-26T01:11:34.796Z,100418.97
2023-03-26T01:14:10.063Z,100413.03
2023-03-26T01:16:41.626Z,100410.81
2023-03-26T01:19:20.634Z,100410.44
2023-03-26T01:21:47.821Z,100407.44
2023-03-26T01:24:14.322Z,100402.75
2023-03-26T01:26:52.775Z,100398.97
2023-03-26T01:29:45.335Z,100387.13
2023-03-26T01:32:28.437Z,100385.59
2023-03-26T01:35:17.396Z,100377.63
2023-03-26T01:38:11.102Z,100383.38
2023-03-26T01:40:47.146Z,100377.47
2023-03-26T01:43:28.925Z,100377.53
2023-03-26T01:45:59.862Z,100366.25
2023-03-26T01:48:46.563Z,100369.06
2023-03-26T01:51:14.654Z,100360.31
2023-03-26T01:53:44.755Z,100356.28
2023-03-26T01:56:31.422Z,100356.00
2023-03-26T01:59:18.590Z,100346.88
2023-03-26T02:02:04.994Z,100343.53
2023-03-26T02:04:35.896Z,100336.16
2023-03-26T02:07:42.005Z,100330.41
2023-03-26T02:10:15.807Z,100330.91
2023-03-26T02:12:44.927Z,100326.03
2023-03-26T02:15:12.619Z,100329.69
2023-03-26T02:17:40.415Z,100330.72
2023-03-26T02:20:12.318Z,100319.97
2023-03-26T02:22:40.994Z,100319.34
2023-03-26T02:25:10.048Z,100321.97
2023-03-26T02:27:38.829Z,100317.28
2023-03-26T02:30:09.686Z,100315.25
2023-03-26T02:32:36.541Z,100312.56
2023-03-26T02:35:05.581Z,100309.38
2023-03-26T02:37:33.948Z,100302.81
2023-03-26T02:40:00.943Z,100292.50
2023-03-26T02:42:27.927Z,100298.63
2023-03-26T02:44:54.375Z,100302.19
2023-03-26T02:47:20.857Z,100300.50
2023-03-26T02:49:47.878Z,100290.69
2023-03-26T02:52:17.084Z,100294.53
2023-03-26T02:54:43.569Z,100298.44
2023-03-26T02:57:10.155Z,100296.25
2023-03-26T02:59:36.634Z,100291.53
2023-03-26T03:02:03.953Z,100287.69
2023-03-26T03:04:30.962Z,100294.13
2023-03-26T03:06:57.691Z,100289.38
2023-03-26T03:09:27.329Z,100288.38
2023-03-26T03:11:53.950Z,100275.06
2023-03-26T03:14:21.079Z,100279.28
2023-03-26T03:16:47.642Z,100269.53
2023-03-26T03:19:14.683Z,100263.31
2023-03-26T03:21:42.084Z,100263.97
2023-03-26T03:24:09.876Z,100260.47
2023-03-26T03:26:38.050Z,100261.63
2023-03-26T03:29:04.438Z,100258.56
2023-03-26T03:31:30.949Z,100260.63
2023-03-26T03:33:57.500Z,100261.09
2023-03-26T03:36:24.133Z,100256.19
2023-03-26T03:38:50.909Z,100258.75
2023-03-26T03:41:18.791Z,100262.94
2023-03-26T03:43:46.059Z,100259.16
2023-03-26T03:46:12.645Z,100255.53
2023-03-26T03:48:41.491Z,100252.88
2023-03-26T03:51:08.024Z,100246.09
2023-03-26T03:53:37.294Z,100246.25
2023-03-26T03:56:04.853Z,100238.06
2023-03-26T03:58:31.611Z,100232.31
2023-03-26T04:01:05.774Z,100235.19
2023-03-26T04:03:38.422Z,100230.78
2023-03-26T04:06:07.053Z,100232.63
2023-03-26T04:08:34.753Z,100224.22
2023-03-26T04:11:02.017Z,100226.75
2023-03-26T04:13:28.853Z,100220.25
2023-03-26T04:15:56.248Z,100215.50
2023-03-26T04:18:23.452Z,100212.31
2023-03-26T04:20:50.803Z,100202.94
2023-03-26T04:23:18.639Z,100204.91
2023-03-26T04:25:49.989Z,100198.00
2023-03-26T04:28:42.541Z,100199.88
2023-03-26T04:31:11.893Z,100191.84
2023-03-26T04:33:41.447Z,100189.28
2023-03-26T04:36:10.340Z,100176.53
2023-03-26T04:38:45.694Z,100178.38
2023-03-26T04:41:13.559Z,100174.66
2023-03-26T04:43:47.352Z,100172.28
2023-03-26T04:46:15.029Z,100165.75
2023-03-26T04:48:41.496Z,100158.84
2023-03-26T04:51:10.146Z,100152.63
2023-03-26T04:53:36.833Z,100152.81
2023-03-26T04:56:21.436Z,100152.97
2023-03-26T04:58:51.913Z,100145.69
2023-03-26T05:01:18.607Z,100142.00
2023-03-26T05:03:45.802Z,100137.97
2023-03-26T05:06:14.031Z,100140.63
2023-03-26T05:08:41.781Z,100141.28
2023-03-26T05:11:11.656Z,100135.28
2023-03-26T05:13:38.882Z,100139.50
2023-03-26T05:16:05.629Z,100125.84
2023-03-26T05:18:32.434Z,100121.84
2023-03-26T05:20:58.991Z,100127.56
2023-03-26T05:23:25.713Z,100121.34
2023-03-26T05:25:52.233Z,100117.13
2023-03-26T05:28:24.383Z,100116.81
2023-03-26T05:30:53.413Z,100117.66
2023-03-26T05:33:21.347Z,100111.75
2023-03-26T05:35:52.995Z,100108.56
2023-03-26T05:38:19.500Z,100103.69
2023-03-26T05:40:45.968Z,100093.47
2023-03-26T05:43:12.456Z,100092.78
2023-03-26T05:45:39.121Z,100086.03
2023-03-26T05:48:06.149Z,100081.63
2023-03-26T05:50:32.667Z,100078.81
2023-03-26T05:52:59.166Z,100078.81
2023-03-26T05:55:25.645Z,100077.97
2023-03-26T05:57:52.241Z,100072.59
2023-03-26T06:00:18.813Z,100070.75
2023-03-26T06:02:46.808Z,100071.25
2023-03-26T06:05:14.101Z,100076.13
2023-03-26T06:07:40.620Z,100069.41
2023-03-26T06:10:07.940Z,100066.56
2023-03-26T06:12:34.458Z,100064.69
2023-03-26T06:15:01.083Z,100064.38
2023-03-26T06:17:27.567Z,100052.41
2023-03-26T06:19:54.217Z,100049.41
2023-03-26T06:22:20.771Z,100042.50
2023-03-26T06:24:47.284Z,100045.53
2023-03-26T06:27:14.017Z,100037.16
2023-03-26T06:29:40.437Z,100033.47
2023-03-26T06:32:18.347Z,100029.75
2023-03-26T06:34:46.313Z,100031.44
2023-03-26T06:37:12.770Z,100032.78
2023-03-26T06:39:39.168Z,100028.91
2023-03-26T06:42:05.993Z,100032.97
2023-03-26T06:44:32.473Z,100031.13
2023-03-26T06:46:59.025Z,100030.09
2023-03-26T06:49:25.772Z,100025.78
2023-03-26T06:51:52.262Z,100027.56
2023-03-26T06:54:18.866Z,100029.94
2023-03-26T06:56:47.088Z,100024.38
2023-03-26T06:59:13.736Z,100029.63
2023-03-26T07:01:40.541Z,100031.78
2023-03-26T07:04:08.152Z,100029.41
2023-03-26T07:06:34.697Z,100030.44
2023-03-26T07:09:01.225Z,100030.97
2023-03-26T07:11:27.852Z,100029.59
2023-03-26T07:13:56.373Z,100023.03
2023-03-26T07:16:23.063Z,100026.44
2023-03-26T07:18:49.768Z,100024.22
2023-03-26T07:21:17.073Z,100025.91
2023-03-26T07:23:43.903Z,100016.50
2023-03-26T07:26:49.130Z,100031.63
2023-03-26T07:29:32.247Z,100024.56
2023-03-26T07:32:04.214Z,100015.47
2023-03-26T07:34:42.528Z,100011.47
2023-03-26T07:37:24.076Z,100014.63
2023-03-26T07:40:07.957Z,100019.69
2023-03-26T07:42:56.696Z,100013.31
2023-03-26T07:45:45.031Z,100010.75
2023-03-26T07:48:28.759Z,100013.78
2023-03-26T07:50:56.512Z,100011.28
2023-03-26T07:53:23.716Z,100007.06
2023-03-26T07:55:50.179Z,100005.41
2023-03-26T07:58:55.737Z,100007.94
2023-03-26T08:01:28.243Z,100008.41
2023-03-26T08:04:23.424Z,100005.06
2023-03-26T08:07:03.421Z,100004.91
2023-03-26T08:09:39.598Z,100001.19
2023-03-26T08:12:59.978Z,100007.25
2023-03-26T08:15:39.158Z,100004.19
2023-03-26T08:18:19.885Z,99998.81
2023-03-26T08:20:50.349Z,99997.97
2023-03-26T08:23:20.035Z,100004.91
2023-03-26T08:25:59.462Z,100002.19
2023-03-26T08:28:31.702Z,100001.16
2023-03-26T08:30:58.567Z,100007.59
2023-03-26T08:33:27.817Z,100004.38
2023-03-26T08:35:55.138Z,100007.75
2023-03-26T08:38:21.995Z,100000.34
2023-03-26T08:41:10.246Z,100002.38
2023-03-26T08:43:58.411Z,100006.41
2023-03-26T08:46:47.947Z,100004.72
2023-03-26T08:49:53.925Z,100007.41
2023-03-26T08:52:29.563Z,100008.09
2023-03-26T08:55:37.760Z,100004.38
2023-03-26T08:58:20.284Z,100003.22
2023-03-26T09:01:09.526Z,100008.75
2023-03-26T09:03:44.550Z,100000.81
2023-03-26T09:06:20.197Z,99999.50
2023-03-26T09:09:25.225Z,99996.44
2023-03-26T09:12:13.174Z,100006.38
2023-03-26T09:15:12.293Z,100004.03
2023-03-26T09:17:44.806Z,99999.44
2023-03-26T09:20:56.314Z,99994.25
2023-03-26T09:23:44.396Z,99998.44
2023-03-26T09:26:10.922Z,99988.66
2023-03-26T09:29:22.035Z,99981.41
2023-03-26T09:32:00.728Z,99985.97
2023-03-26T09:35:03.569Z,99994.38
2023-03-26T09:37:56.185Z,99985.97
2023-03-26T09:41:01.600Z,99991.03
2023-03-26T09:43:38.197Z,99993.22
2023-03-26T09:46:29.257Z,99988.81
2023-03-26T09:49:13.562Z,100006.53
2023-03-26T09:51:42.933Z,100006.72
2023-03-26T09:54:28.064Z,100004.50
2023-03-26T09:57:09.848Z,100008.22
2023-03-26T10:00:10.126Z,100009.22
2023-03-26T10:03:09.326Z,100014.94
2023-03-26T10:05:48.140Z,100018.81
2023-03-26T10:08:28.790Z,100022.19
2023-03-26T10:11:08.095Z,100020.34
2023-03-26T10:13:46.469Z,100021.38
2023-03-26T10:16:27.154Z,100021.81
2023-03-26T10:19:12.652Z,100020.00
2023-03-26T10:21:59.434Z,100017.97
2023-03-26T10:24:31.556Z,100017.78
2023-03-26T10:27:10.949Z,100010.13
2023-03-26T10:30:09.610Z,100014.28
2023-03-26T10:32:55.232Z,100010.91
2023-03-26T10:35:35.377Z,100010.88
2023-03-26T10:38:26.792Z,100008.91
2023-03-26T10:41:22.112Z,100016.09
2023-03-26T10:44:09.362Z,100006.75
2023-03-26T10:47:13.196Z,100010.63
2023-03-26T10:50:03.901Z,100016.03
2023-03-26T10:52:59.672Z,100014.88
2023-03-26T10:55:37.322Z,100018.53
2023-03-26T10:58:23.951Z,100013.66
2023-03-26T11:01:10.546Z,100017.69
2023-03-26T11:03:43.883Z,100012.63
2023-03-26T11:06:19.425Z,100021.59
2023-03-26T11:09:01.189Z,100027.16
2023-03-26T11:11:37.241Z,100034.34
2023-03-26T11:14:34.307Z,100030.63
2023-03-26T11:17:40.901Z,100037.19
2023-03-26T11:20:08.114Z,100047.22
2023-03-26T11:23:08.431Z,100052.41
2023-03-26T11:25:43.305Z,100054.16
2023-03-26T11:28:36.579Z,100052.09
2023-03-26T11:31:33.840Z,100060.50
2023-03-26T11:34:21.324Z,100056.94
2023-03-26T11:36:51.498Z,100042.59
2023-03-26T11:39:25.547Z,100051.88
2023-03-26T11:42:01.414Z,100052.16
2023-03-26T11:44:34.264Z,100055.16
2023-03-26T11:47:08.767Z,100049.13
2023-03-26T11:49:36.120Z,100048.72
2023-03-26T11:52:03.862Z,100048.13
2023-03-26T11:54:30.394Z,100052.00
2023-03-26T11:57:16.113Z,100051.75
2023-03-26T11:59:57.328Z,100047.16
2023-03-26T12:02:34.177Z,100050.34
2023-03-26T12:05:20.796Z,100051.97
2023-03-26T12:08:03.037Z,100052.84
2023-03-26T12:10:35.060Z,100065.84
2023-03-26T12:13:40.831Z,100068.09
2023-03-26T12:16:12.812Z,100074.47
2023-03-26T12:18:41.299Z,100068.97
2023-03-26T12:21:19.422Z,100069.44
2023-03-26T12:23:56.391Z,100080.59
2023-03-26T12:26:41.676Z,100079.91
2023-03-26T12:29:10.098Z,100086.31
2023-03-26T12:32:03.692Z,100085.28
2023-03-26T12:34:36.607Z,100082.44
2023-03-26T12:37:05.162Z,100092.03
2023-03-26T12:40:10.313Z,100089.00
2023-03-26T12:44:50.756Z,100104.78
2023-03-26T12:45:44.363Z,100095.38
2023-03-26T12:48:15.708Z,100101.94
2023-03-26T12:50:42.752Z,100101.78
2023-03-26T12:53:46.943Z,100104.97
2023-03-26T12:56:22.131Z,100106.69
2023-03-26T12:58:58.119Z,100106.50
2023-03-26T13:01:27.490Z,100113.25
2023-03-26T13:04:08.494Z,100110.38
2023-03-26T13:07:00.553Z,100110.69
2023-03-26T13:09:39.327Z,100112.41
2023-03-26T13:12:28.710Z,100116.09
2023-03-26T13:15:19.575Z,100110.19
2023-03-26T13:17:53.558Z,100119.47
2023-03-26T13:20:27.332Z,100123.16
2023-03-26T13:23:09.005Z,100116.94
2023-03-26T13:25:55.979Z,100121.81
2023-03-26T13:28:50.488Z,100127.53
2023-03-26T13:31:16.896Z,100123.16
2023-03-26T13:33:46.256Z,100129.34
2023-03-26T13:36:31.967Z,100121.44
2023-03-26T13:39:42.447Z,100121.25
2023-03-26T13:42:25.467Z,100120.16
2023-03-26T13:45:08.330Z,100111.69
2023-03-26T13:47:41.337Z,100110.03
2023-03-26T13:50:37.242Z,100111.72
2023-03-26T13:53:14.024Z,100110.25
2023-03-26T13:55:52.858Z,100118.75
2023-03-26T13:58:36.377Z,100121.72
2023-03-26T14:01:17.371Z,100117.81
2023-03-26T14:03:52.994Z,100112.19
2023-03-26T14:06:28.869Z,100120.28
2023-03-26T14:09:10.311Z,100116.69
2023-03-26T14:11:50.371Z,100116.03
2023-03-26T14:14:23.887Z,100121.72
2023-03-26T14:17:03.343Z,100127.88
2023-03-26T14:19:49.610Z,100137.38
2023-03-26T14:25:50.709Z,100142.41
2023-03-26T14:28:47.509Z,100135.19
2023-03-26T14:31:38.323Z,100132.31
2023-03-26T14:34:24.369Z,100140.22
2023-03-26T14:37:28.495Z,100132.81
2023-03-26T14:40:16.975Z,100135.00
2023-03-26T14:42:57.773Z,100141.69
2023-03-26T14:45:47.268Z,100144.50
2023-03-26T14:48:41.609Z,100146.13
2023-03-26T14:51:41.248Z,100151.59
2023-03-26T14:54:22.595Z,100161.66
2023-03-26T14:57:12.421Z,100165.41
2023-03-26T14:59:51.388Z,100172.47
2023-03-26T15:02:42.902Z,100172.31
2023-03-26T15:05:45.696Z,100187.28
2023-03-26T15:08:33.865Z,100181.72
2023-03-26T15:11:20.963Z,100198.75
2023-03-26T15:14:17.653Z,100199.75
2023-03-26T15:16:55.149Z,100208.16
2023-03-26T15:19:40.671Z,100205.31
2023-03-26T15:22:28.521Z,100210.19
2023-03-26T15:25:08.464Z,100215.09
2023-03-26T15:27:47.847Z,100220.63
2023-03-26T15:30:32.989Z,100224.00
2023-03-26T15:33:22.620Z,100222.84
2023-03-26T15:35:57.515Z,100218.59
2023-03-26T15:38:36.152Z,100225.50
2023-03-26T15:41:28.547Z,100234.44
2023-03-26T15:44:24.786Z,100232.56
2023-03-26T15:47:03.299Z,100240.31
2023-03-26T15:49:40.997Z,100238.16
2023-03-26T15:52:32.332Z,100261.22
2023-03-26T15:55:09.478Z,100260.03
2023-03-26T15:57:57.007Z,100266.59
2023-03-26T16:00:28.990Z,100274.28
2023-03-26T16:03:12.225Z,100279.19
2023-03-26T16:06:14.098Z,100282.19
2023-03-26T16:08:53.223Z,100301.41
2023-03-26T16:11:48.626Z,100299.69
2023-03-26T16:14:18.251Z,100304.69
2023-03-26T16:17:06.573Z,100309.78
2023-03-26T16:19:49.036Z,100318.81
2023-03-26T16:22:44.693Z,100314.47
2023-03-26T16:25:27.379Z,100320.25
2023-03-26T16:28:10.830Z,100330.06
2023-03-26T16:30:37.620Z,100337.50
2023-03-26T16:33:21.151Z,100349.06
2023-03-26T16:36:26.103Z,100341.00
2023-03-26T16:39:08.149Z,100341.13
2023-03-26T16:41:47.344Z,100356.00
2023-03-26T16:44:16.696Z,100361.91
2023-03-26T16:46:52.080Z,100366.28
2023-03-26T16:49:42.530Z,100370.78
2023-03-26T16:52:35.661Z,100378.84
2023-03-26T16:55:30.921Z,100387.16
2023-03-26T16:58:12.396Z,100405.50
2023-03-26T17:00:48.230Z,100401.88
2023-03-26T17:03:35.539Z,100408.97
2023-03-26T17:06:28.834Z,100406.41
2023-03-26T17:09:05.272Z,100419.56
2023-03-26T17:12:01.911Z,100434.47
2023-03-26T17:14:33.479Z,100436.41
2023-03-26T17:17:03.029Z,100427.59
2023-03-26T17:19:48.456Z,100442.00
2023-03-26T17:25:11.591Z,100452.34
2023-03-26T17:27:47.103Z,100448.53
2023-03-26T17:30:42.630Z,100469.38
2023-03-26T17:33:23.286Z,100480.72
2023-03-26T17:35:51.729Z,100486.78
2023-03-26T17:38:18.103Z,100494.22
2023-03-26T17:40:52.391Z,100499.00
2023-03-26T17:43:46.659Z,100507.78
2023-03-26T17:46:25.114Z,100513.16
2023-03-26T17:49:12.284Z,100519.66
2023-03-26T17:51:50.473Z,100526.66
2023-03-26T17:54:30.563Z,100524.13
2023-03-26T17:57:03.054Z,100534.06
2023-03-26T17:59:32.783Z,100539.94
2023-03-26T18:02:04.569Z,100553.53
2023-03-26T18:04:38.435Z,100542.84
2023-03-26T18:07:33.058Z,100548.31
2023-03-26T18:10:17.701Z,100551.13
2023-03-26T18:12:56.410Z,100555.06
2023-03-26T18:15:25.690Z,100564.44
2023-03-26T18:18:02.140Z,100569.22
2023-03-26T18:20:29.181Z,100579.56
2023-03-26T18:22:55.973Z,100586.78
2023-03-26T18:25:30.402Z,100587.50
2023-03-26T18:27:57.693Z,100601.78
2023-03-26T18:30:25.976Z,100608.16
2023-03-26T18:33:14.022Z,100615.78
2023-03-26T18:35:49.646Z,100619.00
2023-03-26T18:38:35.931Z,100624.22
2023-03-26T18:41:08.010Z,100635.25
2023-03-26T18:43:44.590Z,100635.38
2023-03-26T18:46:13.861Z,100650.34
2023-03-26T18:48:41.012Z,100643.84
2023-03-26T18:51:08.137Z,100660.53
2023-03-26T18:54:03.492Z,100662.06
2023-03-26T18:56:38.716Z,100659.53
2023-03-26T18:59:19.683Z,100666.03
2023-03-26T19:01:48.665Z,100677.91
2023-03-26T19:04:16.137Z,100693.00
2023-03-26T19:06:44.471Z,100696.53
2023-03-26T19:09:28.120Z,100704.75
2023-03-26T19:12:03.931Z,100704.75
2023-03-26T19:14:35.268Z,100705.72
2023-03-26T19:17:03.980Z,100709.53
2023-03-26T19:19:37.002Z,100718.59
2023-03-26T19:22:09.334Z,100725.63
2023-03-26T19:24:36.214Z,100721.56
2023-03-26T19:27:03.218Z,100728.44
2023-03-26T19:29:33.527Z,100729.19
2023-03-26T19:32:17.455Z,100734.66
2023-03-26T19:34:48.156Z,100740.72
2023-03-26T19:37:22.846Z,100736.22
2023-03-26T19:39:54.958Z,100745.06
2023-03-26T19:42:26.668Z,100758.19
2023-03-26T19:44:53.989Z,100758.44
2023-03-26T19:47:29.299Z,100767.66
2023-03-26T19:50:19.033Z,100778.91
2023-03-26T19:52:45.553Z,100783.03
2023-03-26T19:55:33.759Z,100787.00
2023-03-26T19:58:00.577Z,100786.84
2023-03-26T20:00:27.070Z,100794.56
2023-03-26T20:02:53.620Z,100815.50
2023-03-26T20:05:26.303Z,100819.47
2023-03-26T20:07:56.248Z,100818.50
2023-03-26T20:10:23.301Z,100815.75
2023-03-26T20:12:49.813Z,100826.59
2023-03-26T20:15:21.345Z,100828.59
2023-03-26T20:17:52.380Z,100840.97
2023-03-26T20:20:19.382Z,100838.09
2023-03-26T20:22:47.476Z,100843.69
2023-03-26T20:25:29.952Z,100850.50
2023-03-26T20:27:58.522Z,100851.03
2023-03-26T20:33:12.688Z,100862.63
2023-03-26T20:35:40.327Z,100868.09
2023-03-26T20:38:09.575Z,100866.47
2023-03-26T20:40:36.470Z,100872.13
2023-03-26T20:43:02.946Z,100875.44
2023-03-26T20:45:29.548Z,100875.66
2023-03-26T20:47:56.085Z,100876.47
2023-03-26T20:50:25.085Z,100883.66
2023-03-26T20:52:51.535Z,100893.56
2023-03-26T20:55:23.395Z,100891.78
2023-03-26T20:57:51.045Z,100899.00
2023-03-26T21:00:19.500Z,100901.94
2023-03-26T21:05:24.954Z,100912.25
2023-03-26T21:07:55.433Z,100919.72
2023-03-26T21:10:22.494Z,100922.72
2023-03-26T21:12:57.300Z,100927.47
2023-03-26T21:15:24.867Z,100924.91
2023-03-26T21:17:52.310Z,100929.22
2023-03-26T21:20:20.633Z,100929.41
2023-03-26T21:23:05.475Z,100937.03
2023-03-26T21:25:39.057Z,100936.16
2023-03-26T21:28:08.136Z,100945.19
2023-03-26T21:30:34.937Z,100945.75
2023-03-26T21:33:02.162Z,100956.13
2023-03-26T21:35:29.163Z,100950.28
2023-03-26T21:37:58.003Z,100955.56
2023-03-26T21:40:24.549Z,100957.94
2023-03-26T21:42:52.509Z,100962.56
2023-03-26T21:45:19.812Z,100967.47
2023-03-26T21:47:46.997Z,100979.97
2023-03-26T21:50:16.594Z,100978.03
2023-03-26T21:52:49.627Z,100983.38
2023-03-26T21:55:18.329Z,100984.97
2023-03-26T21:57:54.043Z,100998.72
2023-03-26T22:00:30.634Z,101004.44
2023-03-26T22:03:24.133Z,101012.97
2023-03-26T22:06:11.414Z,101025.84
2023-03-26T22:08:40.097Z,101027.66
2023-03-26T22:11:08.300Z,101031.56
2023-03-26T22:13:35.716Z,101027.78
2023-03-26T22:16:02.505Z,101027.66
2023-03-26T22:18:30.059Z,101040.31
2023-03-26T22:20:59.559Z,101042.16
2023-03-26T22:23:27.553Z,101049.56
2023-03-26T22:25:54.158Z,101054.91
2023-03-26T22:28:21.634Z,101054.16
2023-03-26T22:30:48.136Z,101060.84
2023-03-26T22:33:17.851Z,101058.78
2023-03-26T22:35:44.736Z,101062.53
2023-03-26T22:38:11.744Z,101063.00
2023-03-26T22:40:38.812Z,101071.16
2023-03-26T22:43:05.392Z,101070.44
2023-03-26T22:45:32.540Z,101070.69
2023-03-26T22:48:03.927Z,101089.06
2023-03-26T22:50:31.258Z,101077.75
2023-03-26T22:52:57.720Z,101083.25
2023-03-26T22:55:29.142Z,101093.25
2023-03-26T22:57:56.879Z,101100.59
2023-03-26T23:00:23.725Z,101101.34
2023-03-26T23:02:50.295Z,101109.81
2023-03-26T23:05:19.861Z,101113.38
2023-03-26T23:07:47.335Z,101119.09
2023-03-26T23:10:14.245Z,101120.41
2023-03-26T23:12:41.592Z,101117.38
2023-03-26T23:15:09.812Z,101118.56
2023-03-26T23:17:37.844Z,101130.50
2023-03-26T23:20:12.031Z,101144.84
2023-03-26T23:22:38.426Z,101150.06
2023-03-26T23:25:05.178Z,101142.88
2023-03-26T23:27:32.898Z,101156.06
2023-03-26T23:29:59.413Z,101158.59
2023-03-26T23:32:25.936Z,101161.81
2023-03-26T23:34:52.669Z,101160.97
2023-03-26T23:37:23.656Z,101164.03
2023-03-26T23:39:51.651Z,101164.25
2023-03-26T23:42:28.606Z,101166.94
2023-03-26T23:44:56.680Z,101173.78
2023-03-26T23:47:23.276Z,101178.50
2023-03-26T23:49:50.018Z,101184.56
2023-03-26T23:52:17.693Z,101194.75
2023-03-26T23:54:45.073Z,101186.41
2023-03-26T23:57:11.837Z,101198.00
2023-03-26T23:59:38.507Z,101207.25
